sensor_id;sensor_type;location;lat;lon;timestamp;P1;durP1;ratioP1;P2;durP2;ratioP2
4278;SDS011;2153;47.744;10.580;2023-04-07T00:00:41;16.63;;;4.70;;
4278;SDS011;2153;47.744;10.580;2023-04-07T00:03:07;14.63;;;4.17;;
4278;SDS011;2153;47.744;10.580;2023-04-07T00:05:35;16.40;;;5.47;;
4278;SDS011;2153;47.744;10.580;2023-04-07T00:08:02;16.67;;;5.33;;
4278;SDS011;2153;47.744;10.580;2023-04-07T00:10:30;17.80;;;5.30;;
4278;SDS011;2153;47.744;10.580;2023-04-07T00:12:56;24.00;;;5.07;;
4278;SDS011;2153;47.744;10.580;2023-04-07T00:15:23;16.33;;;4.93;;
4278;SDS011;2153;47.744;10.580;2023-04-07T00:17:50;19.40;;;4.87;;
4278;SDS011;2153;47.744;10.580;2023-04-07T00:20:17;14.03;;;4.50;;
4278;SDS011;2153;47.744;10.580;2023-04-07T00:22:44;16.17;;;4.80;;
4278;SDS011;2153;47.744;10.580;2023-04-07T00:25:10;18.63;;;4.87;;
4278;SDS011;2153;47.744;10.580;2023-04-07T00:27:38;15.73;;;4.93;;
4278;SDS011;2153;47.744;10.580;2023-04-07T00:30:05;16.90;;;5.23;;
4278;SDS011;2153;47.744;10.580;2023-04-07T00:32:33;18.10;;;5.10;;
4278;SDS011;2153;47.744;10.580;2023-04-07T00:34:59;17.17;;;5.23;;
4278;SDS011;2153;47.744;10.580;2023-04-07T00:37:26;17.07;;;5.23;;
4278;SDS011;2153;47.744;10.580;2023-04-07T00:39:53;16.70;;;5.60;;
4278;SDS011;2153;47.744;10.580;2023-04-07T00:42:21;17.50;;;5.60;;
4278;SDS011;2153;47.744;10.580;2023-04-07T00:44:49;14.80;;;5.03;;
4278;SDS011;2153;47.744;10.580;2023-04-07T00:47:15;15.40;;;5.00;;
4278;SDS011;2153;47.744;10.580;2023-04-07T00:49:42;14.47;;;4.60;;
4278;SDS011;2153;47.744;10.580;2023-04-07T00:52:09;18.47;;;5.90;;
4278;SDS011;2153;47.744;10.580;2023-04-07T00:54:37;16.10;;;5.10;;
4278;SDS011;2153;47.744;10.580;2023-04-07T00:57:04;15.07;;;4.73;;
4278;SDS011;2153;47.744;10.580;2023-04-07T00:59:32;18.20;;;5.83;;
4278;SDS011;2153;47.744;10.580;2023-04-07T01:02:02;17.27;;;5.30;;
4278;SDS011;2153;47.744;10.580;2023-04-07T01:04:38;16.70;;;5.00;;
4278;SDS011;2153;47.744;10.580;2023-04-07T01:07:10;18.63;;;5.50;;
4278;SDS011;2153;47.744;10.580;2023-04-07T01:09:45;16.37;;;5.43;;
4278;SDS011;2153;47.744;10.580;2023-04-07T01:12:14;16.37;;;5.20;;
4278;SDS011;2153;47.744;10.580;2023-04-07T01:14:49;21.50;;;5.20;;
4278;SDS011;2153;47.744;10.580;2023-04-07T01:17:20;14.70;;;5.37;;
4278;SDS011;2153;47.744;10.580;2023-04-07T01:19:52;15.43;;;5.10;;
4278;SDS011;2153;47.744;10.580;2023-04-07T01:22:25;20.50;;;5.27;;
4278;SDS011;2153;47.744;10.580;2023-04-07T01:25:02;15.33;;;4.87;;
4278;SDS011;2153;47.744;10.580;2023-04-07T01:27:41;16.90;;;4.53;;
4278;SDS011;2153;47.744;10.580;2023-04-07T01:30:15;16.27;;;5.00;;
4278;SDS011;2153;47.744;10.580;2023-04-07T01:32:44;20.60;;;5.07;;
4278;SDS011;2153;47.744;10.580;2023-04-07T01:35:16;17.47;;;5.23;;
4278;SDS011;2153;47.744;10.580;2023-04-07T01:37:44;16.30;;;5.77;;
4278;SDS011;2153;47.744;10.580;2023-04-07T01:40:13;15.70;;;5.00;;
4278;SDS011;2153;47.744;10.580;2023-04-07T01:42:41;15.53;;;5.23;;
4278;SDS011;2153;47.744;10.580;2023-04-07T01:45:09;15.90;;;5.10;;
4278;SDS011;2153;47.744;10.580;2023-04-07T01:47:38;17.50;;;5.70;;
4278;SDS011;2153;47.744;10.580;2023-04-07T01:50:06;15.40;;;4.87;;
4278;SDS011;2153;47.744;10.580;2023-04-07T01:52:34;20.40;;;5.70;;
4278;SDS011;2153;47.744;10.580;2023-04-07T01:55:01;15.53;;;5.10;;
4278;SDS011;2153;47.744;10.580;2023-04-07T01:57:28;15.97;;;5.07;;
4278;SDS011;2153;47.744;10.580;2023-04-07T01:59:55;18.37;;;5.50;;
4278;SDS011;2153;47.744;10.580;2023-04-07T02:02:22;15.30;;;5.10;;
4278;SDS011;2153;47.744;10.580;2023-04-07T02:04:51;16.90;;;5.10;;
4278;SDS011;2153;47.744;10.580;2023-04-07T02:07:21;17.70;;;5.67;;
4278;SDS011;2153;47.744;10.580;2023-04-07T02:10:02;17.20;;;6.03;;
4278;SDS011;2153;47.744;10.580;2023-04-07T02:12:33;17.10;;;5.40;;
4278;SDS011;2153;47.744;10.580;2023-04-07T02:15:02;18.30;;;5.37;;
4278;SDS011;2153;47.744;10.580;2023-04-07T02:17:30;16.20;;;5.60;;
4278;SDS011;2153;47.744;10.580;2023-04-07T02:20:01;17.20;;;5.50;;
4278;SDS011;2153;47.744;10.580;2023-04-07T02:22:29;16.30;;;5.20;;
4278;SDS011;2153;47.744;10.580;2023-04-07T02:24:58;17.37;;;5.80;;
4278;SDS011;2153;47.744;10.580;2023-04-07T02:27:24;16.90;;;5.80;;
4278;SDS011;2153;47.744;10.580;2023-04-07T02:29:51;15.97;;;5.70;;
4278;SDS011;2153;47.744;10.580;2023-04-07T02:32:18;21.00;;;5.40;;
4278;SDS011;2153;47.744;10.580;2023-04-07T02:34:45;16.13;;;5.40;;
4278;SDS011;2153;47.744;10.580;2023-04-07T02:37:13;16.07;;;5.90;;
4278;SDS011;2153;47.744;10.580;2023-04-07T02:39:40;14.37;;;4.43;;
4278;SDS011;2153;47.744;10.580;2023-04-07T02:42:06;16.87;;;5.10;;
4278;SDS011;2153;47.744;10.580;2023-04-07T02:44:33;16.43;;;5.40;;
4278;SDS011;2153;47.744;10.580;2023-04-07T02:47:00;17.93;;;5.53;;
4278;SDS011;2153;47.744;10.580;2023-04-07T02:49:26;15.90;;;5.40;;
4278;SDS011;2153;47.744;10.580;2023-04-07T02:51:53;14.63;;;4.43;;
4278;SDS011;2153;47.744;10.580;2023-04-07T02:54:21;16.90;;;5.50;;
4278;SDS011;2153;47.744;10.580;2023-04-07T02:56:48;16.67;;;4.33;;
4278;SDS011;2153;47.744;10.580;2023-04-07T02:59:14;17.33;;;5.80;;
4278;SDS011;2153;47.744;10.580;2023-04-07T03:01:41;17.50;;;5.40;;
4278;SDS011;2153;47.744;10.580;2023-04-07T03:04:08;16.83;;;5.47;;
4278;SDS011;2153;47.744;10.580;2023-04-07T03:06:35;18.63;;;5.70;;
4278;SDS011;2153;47.744;10.580;2023-04-07T03:09:01;16.90;;;5.50;;
4278;SDS011;2153;47.744;10.580;2023-04-07T03:11:29;20.40;;;6.47;;
4278;SDS011;2153;47.744;10.580;2023-04-07T03:13:56;17.57;;;6.30;;
4278;SDS011;2153;47.744;10.580;2023-04-07T03:16:23;23.67;;;7.40;;
4278;SDS011;2153;47.744;10.580;2023-04-07T03:18:50;18.77;;;6.40;;
4278;SDS011;2153;47.744;10.580;2023-04-07T03:21:16;22.00;;;6.57;;
4278;SDS011;2153;47.744;10.580;2023-04-07T03:23:43;18.83;;;6.97;;
4278;SDS011;2153;47.744;10.580;2023-04-07T03:26:10;17.90;;;5.83;;
4278;SDS011;2153;47.744;10.580;2023-04-07T03:28:38;18.47;;;6.20;;
4278;SDS011;2153;47.744;10.580;2023-04-07T03:31:05;16.63;;;6.57;;
4278;SDS011;2153;47.744;10.580;2023-04-07T03:33:32;21.30;;;6.60;;
4278;SDS011;2153;47.744;10.580;2023-04-07T03:35:59;18.07;;;6.20;;
4278;SDS011;2153;47.744;10.580;2023-04-07T03:38:25;18.20;;;6.27;;
4278;SDS011;2153;47.744;10.580;2023-04-07T03:40:52;15.83;;;5.43;;
4278;SDS011;2153;47.744;10.580;2023-04-07T03:43:19;18.43;;;6.07;;
4278;SDS011;2153;47.744;10.580;2023-04-07T03:45:48;16.40;;;5.33;;
4278;SDS011;2153;47.744;10.580;2023-04-07T03:48:14;17.57;;;6.30;;
4278;SDS011;2153;47.744;10.580;2023-04-07T03:50:41;19.67;;;6.23;;
4278;SDS011;2153;47.744;10.580;2023-04-07T03:53:08;17.37;;;5.63;;
4278;SDS011;2153;47.744;10.580;2023-04-07T03:55:35;29.13;;;6.70;;
4278;SDS011;2153;47.744;10.580;2023-04-07T03:58:02;17.90;;;6.60;;
4278;SDS011;2153;47.744;10.580;2023-04-07T04:00:29;20.17;;;6.40;;
4278;SDS011;2153;47.744;10.580;2023-04-07T04:02:58;16.53;;;5.90;;
4278;SDS011;2153;47.744;10.580;2023-04-07T04:05:25;18.97;;;6.17;;
4278;SDS011;2153;47.744;10.580;2023-04-07T04:07:52;17.57;;;5.83;;
4278;SDS011;2153;47.744;10.580;2023-04-07T04:10:19;17.17;;;5.80;;
4278;SDS011;2153;47.744;10.580;2023-04-07T04:12:46;19.13;;;6.60;;
4278;SDS011;2153;47.744;10.580;2023-04-07T04:15:14;18.37;;;6.53;;
4278;SDS011;2153;47.744;10.580;2023-04-07T04:17:41;17.07;;;5.83;;
4278;SDS011;2153;47.744;10.580;2023-04-07T04:20:09;19.60;;;6.23;;
4278;SDS011;2153;47.744;10.580;2023-04-07T04:22:36;17.73;;;5.80;;
4278;SDS011;2153;47.744;10.580;2023-04-07T04:25:03;17.10;;;6.03;;
4278;SDS011;2153;47.744;10.580;2023-04-07T04:27:30;18.30;;;5.97;;
4278;SDS011;2153;47.744;10.580;2023-04-07T04:29:57;22.17;;;6.67;;
4278;SDS011;2153;47.744;10.580;2023-04-07T04:32:23;17.47;;;5.90;;
4278;SDS011;2153;47.744;10.580;2023-04-07T04:34:50;18.27;;;6.10;;
4278;SDS011;2153;47.744;10.580;2023-04-07T04:37:18;17.97;;;6.60;;
4278;SDS011;2153;47.744;10.580;2023-04-07T04:39:45;18.67;;;6.27;;
4278;SDS011;2153;47.744;10.580;2023-04-07T04:42:12;18.03;;;6.70;;
4278;SDS011;2153;47.744;10.580;2023-04-07T04:44:38;17.47;;;6.57;;
4278;SDS011;2153;47.744;10.580;2023-04-07T04:47:05;18.33;;;6.23;;
4278;SDS011;2153;47.744;10.580;2023-04-07T04:49:32;19.77;;;6.83;;
4278;SDS011;2153;47.744;10.580;2023-04-07T04:51:59;18.73;;;6.90;;
4278;SDS011;2153;47.744;10.580;2023-04-07T04:54:27;17.47;;;6.10;;
4278;SDS011;2153;47.744;10.580;2023-04-07T04:56:54;17.87;;;6.67;;
4278;SDS011;2153;47.744;10.580;2023-04-07T04:59:21;17.97;;;5.87;;
4278;SDS011;2153;47.744;10.580;2023-04-07T05:01:48;16.53;;;5.80;;
4278;SDS011;2153;47.744;10.580;2023-04-07T05:04:15;18.63;;;6.40;;
4278;SDS011;2153;47.744;10.580;2023-04-07T05:06:41;18.77;;;6.93;;
4278;SDS011;2153;47.744;10.580;2023-04-07T05:09:08;21.57;;;7.27;;
4278;SDS011;2153;47.744;10.580;2023-04-07T05:11:37;17.80;;;6.43;;
4278;SDS011;2153;47.744;10.580;2023-04-07T05:14:03;18.30;;;6.43;;
4278;SDS011;2153;47.744;10.580;2023-04-07T05:16:30;19.10;;;6.20;;
4278;SDS011;2153;47.744;10.580;2023-04-07T05:18:57;18.73;;;6.30;;
4278;SDS011;2153;47.744;10.580;2023-04-07T05:21:23;18.83;;;6.00;;
4278;SDS011;2153;47.744;10.580;2023-04-07T05:23:50;19.43;;;7.10;;
4278;SDS011;2153;47.744;10.580;2023-04-07T05:26:18;18.27;;;6.63;;
4278;SDS011;2153;47.744;10.580;2023-04-07T05:28:46;19.20;;;7.27;;
4278;SDS011;2153;47.744;10.580;2023-04-07T05:31:13;19.10;;;6.33;;
4278;SDS011;2153;47.744;10.580;2023-04-07T05:33:40;17.17;;;6.63;;
4278;SDS011;2153;47.744;10.580;2023-04-07T05:36:07;19.90;;;7.60;;
4278;SDS011;2153;47.744;10.580;2023-04-07T05:38:33;16.30;;;6.10;;
4278;SDS011;2153;47.744;10.580;2023-04-07T05:41:00;16.60;;;5.93;;
4278;SDS011;2153;47.744;10.580;2023-04-07T05:43:27;18.90;;;7.30;;
4278;SDS011;2153;47.744;10.580;2023-04-07T05:45:55;18.83;;;6.83;;
4278;SDS011;2153;47.744;10.580;2023-04-07T05:48:22;22.23;;;7.90;;
4278;SDS011;2153;47.744;10.580;2023-04-07T05:50:49;19.20;;;7.70;;
4278;SDS011;2153;47.744;10.580;2023-04-07T05:53:15;21.90;;;7.10;;
4278;SDS011;2153;47.744;10.580;2023-04-07T05:55:42;17.93;;;6.50;;
4278;SDS011;2153;47.744;10.580;2023-04-07T05:58:09;20.77;;;7.50;;
4278;SDS011;2153;47.744;10.580;2023-04-07T06:00:35;18.27;;;6.50;;
4278;SDS011;2153;47.744;10.580;2023-04-07T06:03:03;18.87;;;7.13;;
4278;SDS011;2153;47.744;10.580;2023-04-07T06:05:30;20.13;;;7.80;;
4278;SDS011;2153;47.744;10.580;2023-04-07T06:07:57;18.33;;;6.00;;
4278;SDS011;2153;47.744;10.580;2023-04-07T06:10:24;20.33;;;7.37;;
4278;SDS011;2153;47.744;10.580;2023-04-07T06:12:51;19.80;;;7.80;;
4278;SDS011;2153;47.744;10.580;2023-04-07T06:15:17;21.50;;;8.07;;
4278;SDS011;2153;47.744;10.580;2023-04-07T06:17:44;18.90;;;7.00;;
4278;SDS011;2153;47.744;10.580;2023-04-07T06:20:12;17.90;;;6.67;;
4278;SDS011;2153;47.744;10.580;2023-04-07T06:22:39;17.87;;;6.50;;
4278;SDS011;2153;47.744;10.580;2023-04-07T06:25:06;19.10;;;6.00;;
4278;SDS011;2153;47.744;10.580;2023-04-07T06:27:33;20.93;;;6.47;;
4278;SDS011;2153;47.744;10.580;2023-04-07T06:30:00;19.20;;;7.70;;
4278;SDS011;2153;47.744;10.580;2023-04-07T06:32:27;17.93;;;6.17;;
4278;SDS011;2153;47.744;10.580;2023-04-07T06:34:54;18.80;;;7.47;;
4278;SDS011;2153;47.744;10.580;2023-04-07T06:37:22;23.33;;;6.77;;
4278;SDS011;2153;47.744;10.580;2023-04-07T06:39:50;16.70;;;6.57;;
4278;SDS011;2153;47.744;10.580;2023-04-07T06:42:16;17.40;;;6.47;;
4278;SDS011;2153;47.744;10.580;2023-04-07T06:44:43;22.70;;;6.77;;
4278;SDS011;2153;47.744;10.580;2023-04-07T06:47:10;15.33;;;5.73;;
4278;SDS011;2153;47.744;10.580;2023-04-07T06:49:36;19.17;;;6.60;;
4278;SDS011;2153;47.744;10.580;2023-04-07T06:52:03;19.30;;;5.67;;
4278;SDS011;2153;47.744;10.580;2023-04-07T06:54:32;19.00;;;7.00;;
4278;SDS011;2153;47.744;10.580;2023-04-07T06:56:58;18.47;;;6.93;;
4278;SDS011;2153;47.744;10.580;2023-04-07T06:59:25;16.93;;;6.30;;
4278;SDS011;2153;47.744;10.580;2023-04-07T07:01:52;19.63;;;6.00;;
4278;SDS011;2153;47.744;10.580;2023-04-07T07:04:19;19.83;;;6.27;;
4278;SDS011;2153;47.744;10.580;2023-04-07T07:06:45;16.03;;;5.77;;
4278;SDS011;2153;47.744;10.580;2023-04-07T07:09:12;19.63;;;6.03;;
4278;SDS011;2153;47.744;10.580;2023-04-07T07:11:41;17.90;;;5.50;;
4278;SDS011;2153;47.744;10.580;2023-04-07T07:14:08;19.57;;;6.57;;
4278;SDS011;2153;47.744;10.580;2023-04-07T07:16:34;18.07;;;6.27;;
4278;SDS011;2153;47.744;10.580;2023-04-07T07:19:01;18.43;;;6.00;;
4278;SDS011;2153;47.744;10.580;2023-04-07T07:21:28;21.27;;;5.80;;
4278;SDS011;2153;47.744;10.580;2023-04-07T07:23:55;15.70;;;5.50;;
4278;SDS011;2153;47.744;10.580;2023-04-07T07:26:22;19.10;;;6.13;;
4278;SDS011;2153;47.744;10.580;2023-04-07T07:28:50;17.30;;;5.47;;
4278;SDS011;2153;47.744;10.580;2023-04-07T07:31:16;16.40;;;5.60;;
4278;SDS011;2153;47.744;10.580;2023-04-07T07:33:44;17.87;;;5.20;;
4278;SDS011;2153;47.744;10.580;2023-04-07T07:36:12;17.23;;;6.20;;
4278;SDS011;2153;47.744;10.580;2023-04-07T07:38:39;16.40;;;5.80;;
4278;SDS011;2153;47.744;10.580;2023-04-07T07:41:06;15.67;;;5.20;;
4278;SDS011;2153;47.744;10.580;2023-04-07T07:43:33;19.90;;;6.27;;
4278;SDS011;2153;47.744;10.580;2023-04-07T07:46:02;17.60;;;5.60;;
4278;SDS011;2153;47.744;10.580;2023-04-07T07:48:29;17.73;;;6.10;;
4278;SDS011;2153;47.744;10.580;2023-04-07T07:50:56;17.63;;;5.70;;
4278;SDS011;2153;47.744;10.580;2023-04-07T07:53:22;16.57;;;5.57;;
4278;SDS011;2153;47.744;10.580;2023-04-07T07:55:49;15.37;;;4.50;;
4278;SDS011;2153;47.744;10.580;2023-04-07T07:58:16;17.03;;;4.87;;
4278;SDS011;2153;47.744;10.580;2023-04-07T08:00:43;15.93;;;5.23;;
4278;SDS011;2153;47.744;10.580;2023-04-07T08:03:11;18.17;;;5.27;;
4278;SDS011;2153;47.744;10.580;2023-04-07T08:05:38;15.73;;;5.07;;
4278;SDS011;2153;47.744;10.580;2023-04-07T08:08:05;16.37;;;4.63;;
4278;SDS011;2153;47.744;10.580;2023-04-07T08:10:32;19.10;;;4.93;;
4278;SDS011;2153;47.744;10.580;2023-04-07T08:12:58;20.03;;;5.53;;
4278;SDS011;2153;47.744;10.580;2023-04-07T08:15:25;23.80;;;5.70;;
4278;SDS011;2153;47.744;10.580;2023-04-07T08:17:52;16.73;;;4.50;;
4278;SDS011;2153;47.744;10.580;2023-04-07T08:20:20;15.73;;;4.97;;
4278;SDS011;2153;47.744;10.580;2023-04-07T08:22:47;15.97;;;3.97;;
4278;SDS011;2153;47.744;10.580;2023-04-07T08:25:13;17.37;;;5.00;;
4278;SDS011;2153;47.744;10.580;2023-04-07T08:27:40;16.50;;;4.90;;
4278;SDS011;2153;47.744;10.580;2023-04-07T08:30:07;16.40;;;5.03;;
4278;SDS011;2153;47.744;10.580;2023-04-07T08:32:35;15.27;;;4.57;;
4278;SDS011;2153;47.744;10.580;2023-04-07T08:35:02;15.73;;;4.40;;
4278;SDS011;2153;47.744;10.580;2023-04-07T08:37:31;14.27;;;3.90;;
4278;SDS011;2153;47.744;10.580;2023-04-07T08:39:59;17.43;;;4.57;;
4278;SDS011;2153;47.744;10.580;2023-04-07T08:42:26;16.00;;;4.07;;
4278;SDS011;2153;47.744;10.580;2023-04-07T08:44:54;16.40;;;3.73;;
4278;SDS011;2153;47.744;10.580;2023-04-07T08:47:21;18.27;;;4.50;;
4278;SDS011;2153;47.744;10.580;2023-04-07T08:49:51;14.80;;;4.40;;
4278;SDS011;2153;47.744;10.580;2023-04-07T08:52:20;15.07;;;4.10;;
4278;SDS011;2153;47.744;10.580;2023-04-07T08:54:51;13.97;;;4.07;;
4278;SDS011;2153;47.744;10.580;2023-04-07T08:57:20;14.07;;;3.97;;
4278;SDS011;2153;47.744;10.580;2023-04-07T08:59:46;15.17;;;4.33;;
4278;SDS011;2153;47.744;10.580;2023-04-07T09:02:15;14.00;;;3.60;;
4278;SDS011;2153;47.744;10.580;2023-04-07T09:04:43;16.00;;;3.80;;
4278;SDS011;2153;47.744;10.580;2023-04-07T09:07:10;15.83;;;3.77;;
4278;SDS011;2153;47.744;10.580;2023-04-07T09:09:37;16.90;;;4.07;;
4278;SDS011;2153;47.744;10.580;2023-04-07T09:12:05;15.40;;;4.30;;
4278;SDS011;2153;47.744;10.580;2023-04-07T09:14:32;16.20;;;3.80;;
4278;SDS011;2153;47.744;10.580;2023-04-07T09:16:58;21.10;;;3.30;;
4278;SDS011;2153;47.744;10.580;2023-04-07T09:19:25;15.40;;;3.63;;
4278;SDS011;2153;47.744;10.580;2023-04-07T09:21:54;14.07;;;3.27;;
4278;SDS011;2153;47.744;10.580;2023-04-07T09:24:22;14.13;;;3.30;;
4278;SDS011;2153;47.744;10.580;2023-04-07T09:26:49;16.50;;;4.07;;
4278;SDS011;2153;47.744;10.580;2023-04-07T09:29:20;15.73;;;3.87;;
4278;SDS011;2153;47.744;10.580;2023-04-07T09:31:47;25.93;;;3.63;;
4278;SDS011;2153;47.744;10.580;2023-04-07T09:34:25;17.63;;;3.40;;
4278;SDS011;2153;47.744;10.580;2023-04-07T09:36:53;14.27;;;3.87;;
4278;SDS011;2153;47.744;10.580;2023-04-07T09:39:21;15.20;;;3.30;;
4278;SDS011;2153;47.744;10.580;2023-04-07T09:41:48;15.73;;;3.70;;
4278;SDS011;2153;47.744;10.580;2023-04-07T09:44:15;14.93;;;3.30;;
4278;SDS011;2153;47.744;10.580;2023-04-07T09:46:49;15.93;;;2.90;;
4278;SDS011;2153;47.744;10.580;2023-04-07T09:49:17;15.37;;;4.00;;
4278;SDS011;2153;47.744;10.580;2023-04-07T09:51:51;14.30;;;3.30;;
4278;SDS011;2153;47.744;10.580;2023-04-07T09:54:30;15.60;;;3.60;;
4278;SDS011;2153;47.744;10.580;2023-04-07T09:56:58;13.87;;;3.70;;
4278;SDS011;2153;47.744;10.580;2023-04-07T09:59:26;15.17;;;3.40;;
4278;SDS011;2153;47.744;10.580;2023-04-07T10:01:55;14.20;;;3.43;;
4278;SDS011;2153;47.744;10.580;2023-04-07T10:04:22;13.97;;;2.83;;
4278;SDS011;2153;47.744;10.580;2023-04-07T10:06:49;15.77;;;3.10;;
4278;SDS011;2153;47.744;10.580;2023-04-07T10:09:17;16.10;;;3.40;;
4278;SDS011;2153;47.744;10.580;2023-04-07T10:11:44;14.40;;;3.37;;
4278;SDS011;2153;47.744;10.580;2023-04-07T10:14:11;15.33;;;3.90;;
4278;SDS011;2153;47.744;10.580;2023-04-07T10:16:38;16.03;;;4.93;;
4278;SDS011;2153;47.744;10.580;2023-04-07T10:19:08;14.47;;;3.70;;
4278;SDS011;2153;47.744;10.580;2023-04-07T10:21:37;16.23;;;3.47;;
4278;SDS011;2153;47.744;10.580;2023-04-07T10:24:08;13.73;;;2.93;;
4278;SDS011;2153;47.744;10.580;2023-04-07T10:26:46;15.57;;;3.30;;
4278;SDS011;2153;47.744;10.580;2023-04-07T10:29:17;14.40;;;3.60;;
4278;SDS011;2153;47.744;10.580;2023-04-07T10:31:45;15.83;;;3.60;;
4278;SDS011;2153;47.744;10.580;2023-04-07T10:34:13;13.20;;;3.67;;
4278;SDS011;2153;47.744;10.580;2023-04-07T10:39:34;16.60;;;4.30;;
4278;SDS011;2153;47.744;10.580;2023-04-07T10:42:01;18.20;;;4.70;;
4278;SDS011;2153;47.744;10.580;2023-04-07T10:47:12;16.87;;;4.63;;
4278;SDS011;2153;47.744;10.580;2023-04-07T10:49:40;15.40;;;4.47;;
4278;SDS011;2153;47.744;10.580;2023-04-07T10:52:43;18.20;;;4.93;;
4278;SDS011;2153;47.744;10.580;2023-04-07T10:55:30;20.57;;;6.13;;
4278;SDS011;2153;47.744;10.580;2023-04-07T10:58:17;16.50;;;5.40;;
4278;SDS011;2153;47.744;10.580;2023-04-07T11:03:53;18.40;;;5.67;;
4278;SDS011;2153;47.744;10.580;2023-04-07T11:06:23;18.30;;;4.73;;
4278;SDS011;2153;47.744;10.580;2023-04-07T11:08:50;15.30;;;4.70;;
4278;SDS011;2153;47.744;10.580;2023-04-07T11:11:19;18.23;;;5.30;;
4278;SDS011;2153;47.744;10.580;2023-04-07T11:14:02;15.47;;;5.10;;
4278;SDS011;2153;47.744;10.580;2023-04-07T11:16:39;24.90;;;5.77;;
4278;SDS011;2153;47.744;10.580;2023-04-07T11:19:07;17.43;;;4.73;;
4278;SDS011;2153;47.744;10.580;2023-04-07T11:21:35;14.93;;;4.50;;
4278;SDS011;2153;47.744;10.580;2023-04-07T11:24:02;17.50;;;6.10;;
4278;SDS011;2153;47.744;10.580;2023-04-07T11:26:29;21.67;;;5.00;;
4278;SDS011;2153;47.744;10.580;2023-04-07T11:29:03;16.77;;;5.00;;
4278;SDS011;2153;47.744;10.580;2023-04-07T11:31:30;17.40;;;5.40;;
4278;SDS011;2153;47.744;10.580;2023-04-07T11:33:57;14.83;;;5.00;;
4278;SDS011;2153;47.744;10.580;2023-04-07T11:36:26;16.83;;;5.60;;
4278;SDS011;2153;47.744;10.580;2023-04-07T11:38:55;18.20;;;6.47;;
4278;SDS011;2153;47.744;10.580;2023-04-07T11:41:22;16.90;;;5.93;;
4278;SDS011;2153;47.744;10.580;2023-04-07T11:44:02;19.27;;;5.67;;
4278;SDS011;2153;47.744;10.580;2023-04-07T11:46:30;18.33;;;6.10;;
4278;SDS011;2153;47.744;10.580;2023-04-07T11:49:07;20.33;;;6.33;;
4278;SDS011;2153;47.744;10.580;2023-04-07T11:51:34;19.20;;;6.53;;
4278;SDS011;2153;47.744;10.580;2023-04-07T11:54:03;16.57;;;5.47;;
4278;SDS011;2153;47.744;10.580;2023-04-07T11:56:29;16.63;;;5.67;;
4278;SDS011;2153;47.744;10.580;2023-04-07T11:59:07;16.80;;;5.43;;
4278;SDS011;2153;47.744;10.580;2023-04-07T12:01:40;22.77;;;6.80;;
4278;SDS011;2153;47.744;10.580;2023-04-07T12:04:10;15.37;;;4.97;;
4278;SDS011;2153;47.744;10.580;2023-04-07T12:06:38;17.20;;;5.80;;
4278;SDS011;2153;47.744;10.580;2023-04-07T12:09:08;18.20;;;5.83;;
4278;SDS011;2153;47.744;10.580;2023-04-07T12:11:49;18.07;;;6.73;;
4278;SDS011;2153;47.744;10.580;2023-04-07T12:14:16;21.70;;;6.23;;
4278;SDS011;2153;47.744;10.580;2023-04-07T12:16:43;18.10;;;6.00;;
4278;SDS011;2153;47.744;10.580;2023-04-07T12:19:10;17.10;;;5.37;;
4278;SDS011;2153;47.744;10.580;2023-04-07T12:21:37;16.30;;;5.50;;
4278;SDS011;2153;47.744;10.580;2023-04-07T12:24:04;16.30;;;4.57;;
4278;SDS011;2153;47.744;10.580;2023-04-07T12:26:32;16.00;;;4.13;;
4278;SDS011;2153;47.744;10.580;2023-04-07T12:28:59;17.00;;;4.30;;
4278;SDS011;2153;47.744;10.580;2023-04-07T12:31:29;17.40;;;4.80;;
4278;SDS011;2153;47.744;10.580;2023-04-07T12:33:56;21.07;;;3.87;;
4278;SDS011;2153;47.744;10.580;2023-04-07T12:36:23;14.43;;;3.40;;
4278;SDS011;2153;47.744;10.580;2023-04-07T12:38:50;15.63;;;3.77;;
4278;SDS011;2153;47.744;10.580;2023-04-07T12:41:16;14.73;;;3.40;;
4278;SDS011;2153;47.744;10.580;2023-04-07T12:43:44;16.13;;;3.90;;
4278;SDS011;2153;47.744;10.580;2023-04-07T12:46:11;18.73;;;3.77;;
4278;SDS011;2153;47.744;10.580;2023-04-07T12:48:38;14.90;;;3.30;;
4278;SDS011;2153;47.744;10.580;2023-04-07T12:51:05;14.63;;;3.27;;
4278;SDS011;2153;47.744;10.580;2023-04-07T12:53:32;16.40;;;3.03;;
4278;SDS011;2153;47.744;10.580;2023-04-07T12:55:58;13.63;;;3.07;;
4278;SDS011;2153;47.744;10.580;2023-04-07T12:58:25;13.93;;;3.40;;
4278;SDS011;2153;47.744;10.580;2023-04-07T13:00:53;13.33;;;3.20;;
4278;SDS011;2153;47.744;10.580;2023-04-07T13:03:20;14.83;;;3.63;;
4278;SDS011;2153;47.744;10.580;2023-04-07T13:05:47;14.47;;;4.03;;
4278;SDS011;2153;47.744;10.580;2023-04-07T13:08:14;15.60;;;3.33;;
4278;SDS011;2153;47.744;10.580;2023-04-07T13:10:41;14.57;;;3.30;;
4278;SDS011;2153;47.744;10.580;2023-04-07T13:13:07;16.40;;;3.10;;
4278;SDS011;2153;47.744;10.580;2023-04-07T13:15:34;12.77;;;2.70;;
4278;SDS011;2153;47.744;10.580;2023-04-07T13:18:02;13.87;;;2.80;;
4278;SDS011;2153;47.744;10.580;2023-04-07T13:20:29;15.83;;;3.23;;
4278;SDS011;2153;47.744;10.580;2023-04-07T13:22:56;15.70;;;3.40;;
4278;SDS011;2153;47.744;10.580;2023-04-07T13:25:23;15.67;;;2.73;;
4278;SDS011;2153;47.744;10.580;2023-04-07T13:27:49;13.47;;;2.30;;
4278;SDS011;2153;47.744;10.580;2023-04-07T13:30:16;12.90;;;2.53;;
4278;SDS011;2153;47.744;10.580;2023-04-07T13:32:43;14.87;;;2.40;;
4278;SDS011;2153;47.744;10.580;2023-04-07T13:35:14;13.63;;;2.60;;
4278;SDS011;2153;47.744;10.580;2023-04-07T13:37:41;14.33;;;2.67;;
4278;SDS011;2153;47.744;10.580;2023-04-07T13:40:08;12.73;;;2.10;;
4278;SDS011;2153;47.744;10.580;2023-04-07T13:42:36;13.73;;;2.30;;
4278;SDS011;2153;47.744;10.580;2023-04-07T13:45:03;16.80;;;2.17;;
4278;SDS011;2153;47.744;10.580;2023-04-07T13:47:30;13.93;;;2.37;;
4278;SDS011;2153;47.744;10.580;2023-04-07T13:49:58;12.53;;;2.00;;
4278;SDS011;2153;47.744;10.580;2023-04-07T13:52:26;12.40;;;2.23;;
4278;SDS011;2153;47.744;10.580;2023-04-07T13:54:53;15.70;;;3.50;;
4278;SDS011;2153;47.744;10.580;2023-04-07T13:57:21;12.63;;;2.53;;
4278;SDS011;2153;47.744;10.580;2023-04-07T13:59:49;15.37;;;2.87;;
4278;SDS011;2153;47.744;10.580;2023-04-07T14:02:17;12.20;;;2.47;;
4278;SDS011;2153;47.744;10.580;2023-04-07T14:04:44;12.20;;;2.20;;
4278;SDS011;2153;47.744;10.580;2023-04-07T14:07:11;13.57;;;2.87;;
4278;SDS011;2153;47.744;10.580;2023-04-07T14:09:39;15.63;;;2.87;;
4278;SDS011;2153;47.744;10.580;2023-04-07T14:12:06;15.10;;;2.53;;
4278;SDS011;2153;47.744;10.580;2023-04-07T14:14:33;13.10;;;2.70;;
4278;SDS011;2153;47.744;10.580;2023-04-07T14:17:01;15.43;;;2.67;;
4278;SDS011;2153;47.744;10.580;2023-04-07T14:19:28;15.10;;;3.10;;
4278;SDS011;2153;47.744;10.580;2023-04-07T14:21:55;14.60;;;2.70;;
4278;SDS011;2153;47.744;10.580;2023-04-07T14:24:22;14.30;;;3.27;;
4278;SDS011;2153;47.744;10.580;2023-04-07T14:26:50;15.07;;;4.17;;
4278;SDS011;2153;47.744;10.580;2023-04-07T14:29:18;13.90;;;3.70;;
4278;SDS011;2153;47.744;10.580;2023-04-07T14:31:45;14.20;;;3.63;;
4278;SDS011;2153;47.744;10.580;2023-04-07T14:34:13;15.50;;;3.90;;
4278;SDS011;2153;47.744;10.580;2023-04-07T14:36:40;28.43;;;9.97;;
4278;SDS011;2153;47.744;10.580;2023-04-07T14:39:06;20.80;;;7.17;;
4278;SDS011;2153;47.744;10.580;2023-04-07T14:41:33;14.40;;;4.17;;
4278;SDS011;2153;47.744;10.580;2023-04-07T14:44:01;15.27;;;4.27;;
4278;SDS011;2153;47.744;10.580;2023-04-07T14:46:28;15.23;;;3.77;;
4278;SDS011;2153;47.744;10.580;2023-04-07T14:48:55;14.60;;;3.80;;
4278;SDS011;2153;47.744;10.580;2023-04-07T14:51:22;16.07;;;4.53;;
4278;SDS011;2153;47.744;10.580;2023-04-07T14:53:49;18.40;;;3.90;;
4278;SDS011;2153;47.744;10.580;2023-04-07T14:56:19;21.73;;;3.93;;
4278;SDS011;2153;47.744;10.580;2023-04-07T14:58:46;14.43;;;3.70;;
4278;SDS011;2153;47.744;10.580;2023-04-07T15:01:14;14.10;;;3.77;;